Time;durP1;ratioP1;P1;durP2;ratioP2;P2;SDS_P1;SDS_P2;PMS_P1;PMS_P2;Temp;Humidity;BMP_temperature;BMP_pressure;BME280_temperature;BME280_humidity;BME280_pressure;Samples;Min_cycle;Max_cycle;Signal;HPM_P1;HPM_P2
2022/02/10 00:04:58;;;;;;;7.57;5.87;;;3.40;90.40;;;;;;4983182;28;20212;-72
2022/02/10 00:18:05;;;;;;;16.53;8.47;;;3.20;90.10;;;;;;4983685;28;20441;-73
2022/02/10 00:23:15;;;;;;;17.83;10.07;;;3.10;90.40;;;;;;4981917;28;20695;-71
2022/02/10 00:34:13;;;;;;;20.60;11.80;;;2.80;90.50;;;;;;4978779;28;20192;-72
2022/02/10 00:37:18;;;;;;;24.50;11.47;;;2.70;90.50;;;;;;4979716;28;20189;-74
2022/02/10 00:41:57;;;;;;;19.00;10.73;;;2.60;91.00;;;;;;4997967;28;20292;-72
2022/02/10 00:44:23;;;;;;;19.23;11.00;;;2.60;90.90;;;;;;5001816;28;20603;-72
2022/02/10 00:46:49;;;;;;;18.60;9.67;;;2.50;90.90;;;;;;4997505;28;20910;-72
2022/02/10 00:49:14;;;;;;;21.50;11.40;;;2.50;90.90;;;;;;5000627;28;20189;-72
2022/02/10 00:51:41;;;;;;;16.53;9.40;;;2.50;91.00;;;;;;4999645;28;20331;-72
2022/02/10 00:54:07;;;;;;;17.17;9.53;;;2.40;91.30;;;;;;5000213;28;20701;-72
2022/02/10 00:56:33;;;;;;;16.20;8.87;;;2.40;91.40;;;;;;4994650;28;20189;-72
2022/02/10 00:59:10;;;;;;;17.90;9.23;;;2.30;91.50;;;;;;4981361;28;20188;-71
2022/02/10 01:07:13;;;;;;;10.93;6.63;;;2.20;91.60;;;;;;4996085;28;20262;-73
2022/02/10 01:30:57;;;;;;;7.27;5.67;;;2.00;92.20;;;;;;5002163;28;20776;-72
2022/02/10 01:33:24;;;;;;;10.10;5.20;;;2.00;92.30;;;;;;5002871;28;20181;-72
2022/02/10 01:35:49;;;;;;;13.77;5.97;;;1.90;92.30;;;;;;4999837;28;20200;-72
2022/02/10 01:38:15;;;;;;;7.40;5.13;;;1.90;92.30;;;;;;5001966;28;20656;-72
2022/02/10 02:05:04;;;;;;;5.20;3.70;;;1.70;92.90;;;;;;5002462;28;20194;-73
2022/02/10 02:07:31;;;;;;;3.93;3.60;;;1.70;93.10;;;;;;5002469;28;20695;-73
2022/02/10 02:09:57;;;;;;;4.93;4.03;;;1.70;93.30;;;;;;5003514;28;20983;-72
2022/02/10 02:12:23;;;;;;;5.17;4.63;;;1.60;93.40;;;;;;5002538;28;20280;-73
2022/02/10 02:14:48;;;;;;;4.60;4.23;;;1.60;93.30;;;;;;5002837;28;20180;-72
2022/02/10 02:17:14;;;;;;;5.73;3.80;;;1.60;93.80;;;;;;5002076;28;21040;-72
2022/02/10 02:19:40;;;;;;;6.87;4.77;;;1.60;93.90;;;;;;5003916;28;20223;-72
2022/02/10 02:22:10;;;;;;;5.73;4.33;;;1.60;93.80;;;;;;4999576;28;20535;-72
2022/02/10 02:24:36;;;;;;;5.33;4.60;;;1.60;94.20;;;;;;5001973;28;20189;-72
2022/02/10 02:27:05;;;;;;;6.13;4.57;;;1.60;94.20;;;;;;5002023;28;20295;-72
2022/02/10 02:32:12;;;;;;;7.03;5.13;;;1.50;94.30;;;;;;5004319;28;20687;-72
2022/02/10 03:06:39;;;;;;;9.77;4.93;;;1.30;94.40;;;;;;5003687;28;20185;-72
2022/02/10 03:09:12;;;;;;;9.77;5.63;;;1.30;94.50;;;;;;5005651;28;20213;-72
2022/02/10 03:11:40;;;;;;;6.13;5.17;;;1.30;94.40;;;;;;5004225;28;20251;-72
2022/02/10 03:14:14;;;;;;;4.77;4.10;;;1.30;94.20;;;;;;5006413;28;20235;-71
2022/02/10 03:22:08;;;;;;;6.10;5.37;;;1.30;94.10;;;;;;5006512;28;20243;-73
2022/02/10 04:13:41;;;;;;;4.87;4.40;;;1.00;94.50;;;;;;5003562;28;20196;-72
2022/02/10 04:16:18;;;;;;;5.67;4.50;;;1.00;94.50;;;;;;5003137;28;20304;-71
2022/02/10 04:24:28;;;;;;;10.90;5.13;;;0.90;94.70;;;;;;4981388;28;20758;-72
2022/02/10 04:37:18;;;;;;;10.07;5.20;;;0.90;94.60;;;;;;4981160;28;20271;-72
2022/02/10 04:59:20;;;;;;;12.43;6.60;;;0.80;93.70;;;;;;4972981;28;20299;-72
2022/02/10 05:33:36;;;;;;;9.47;5.53;;;0.70;94.20;;;;;;4927986;29;20221;-72
2022/02/10 05:36:06;;;;;;;6.63;5.07;;;0.70;94.10;;;;;;4921209;28;20221;-72
2022/02/10 05:38:43;;;;;;;7.53;5.77;;;0.70;94.10;;;;;;4927153;29;20218;-72
2022/02/10 05:43:50;;;;;;;7.47;5.67;;;0.70;94.20;;;;;;4934228;29;20655;-74
2022/02/10 05:49:12;;;;;;;7.53;5.70;;;0.70;94.30;;;;;;4920538;29;20223;-74
2022/02/10 06:54:42;;;;;;;8.03;5.93;;;1.80;95.00;;;;;;5018992;28;20682;-73
2022/02/10 07:10:38;;;;;;;8.43;6.73;;;2.80;95.30;;;;;;5019156;28;20295;-72
2022/02/10 08:55:57;;;;;;;12.57;10.15;;;17.70;60.70;;;;;;5058154;28;20183;-73
2022/02/10 10:04:56;;;;;;;14.20;11.30;;;23.20;49.70;;;;;;5003733;28;20223;-75
2022/02/10 10:07:32;;;;;;;15.73;12.00;;;23.30;49.30;;;;;;5002157;28;20354;-77
2022/02/10 10:26:31;;;;;;;20.23;14.88;;;24.60;50.20;;;;;;5043007;28;20645;-78
2022/02/10 10:52:20;;;;;;;20.88;14.48;;;24.40;48.50;;;;;;5042285;28;20190;-75
2022/02/10 10:55:16;;;;;;;15.57;13.35;;;24.60;49.80;;;;;;5044165;28;20225;-75
2022/02/10 10:57:43;;;;;;;18.35;13.82;;;24.70;48.60;;;;;;5050729;28;20847;-74
2022/02/10 11:39:40;;;;;;;17.92;13.98;;;25.00;49.50;;;;;;5020332;28;20230;-75
2022/02/10 14:11:02;;;;;;;20.90;14.73;;;22.20;51.00;;;;;;4984572;28;20195;-75
2022/02/10 14:13:35;;;;;;;22.80;15.05;;;22.00;51.60;;;;;;4978033;28;20233;-72
2022/02/10 14:18:38;;;;;;;21.52;14.05;;;21.70;51.50;;;;;;4967366;28;20225;-73
2022/02/10 14:26:19;;;;;;;26.85;15.57;;;21.40;52.40;;;;;;4967564;28;20190;-73
2022/02/10 14:28:45;;;;;;;21.70;17.05;;;21.20;52.50;;;;;;4955986;28;20186;-72
2022/02/10 14:31:10;;;;;;;21.15;16.92;;;20.90;52.10;;;;;;5023225;28;20240;-73
2022/02/10 14:33:38;;;;;;;21.42;17.23;;;20.60;52.70;;;;;;5047676;28;20219;-73
2022/02/10 14:36:18;;;;;;;26.02;18.15;;;20.20;53.50;;;;;;5046651;28;20186;-73
2022/02/10 15:50:38;;;;;;;26.15;16.40;;;13.20;64.50;;;;;;4998263;28;20692;-73
2022/02/10 16:17:22;;;;;;;24.90;14.07;;;11.20;67.10;;;;;;5001173;28;20200;-74
2022/02/10 16:19:49;;;;;;;25.65;14.70;;;10.90;67.60;;;;;;5001895;28;20211;-74
2022/02/10 16:24:54;;;;;;;31.08;12.65;;;10.50;68.20;;;;;;5001848;28;20196;-74
2022/02/10 16:27:26;;;;;;;19.13;13.23;;;10.30;68.40;;;;;;4999278;28;20188;-74
2022/02/10 16:29:57;;;;;;;24.17;14.43;;;10.10;69.10;;;;;;5012010;28;20185;-74
2022/02/10 16:32:24;;;;;;;20.52;11.88;;;10.00;69.20;;;;;;4998365;28;20674;-75
2022/02/10 16:34:49;;;;;;;19.05;12.77;;;9.80;69.40;;;;;;5003206;28;20185;-75
2022/02/10 16:37:15;;;;;;;24.52;12.23;;;9.70;69.90;;;;;;5002560;28;20242;-75
2022/02/10 16:39:42;;;;;;;19.35;12.23;;;9.60;70.00;;;;;;5000558;28;20247;-76
2022/02/10 16:42:12;;;;;;;17.45;11.85;;;9.50;70.60;;;;;;4998403;28;20339;-74
2022/02/10 16:44:38;;;;;;;16.52;10.10;;;9.40;70.60;;;;;;5002308;28;20251;-73
2022/02/10 16:47:06;;;;;;;18.50;9.55;;;9.30;70.40;;;;;;5002846;28;20837;-73
2022/02/10 16:49:33;;;;;;;15.52;10.30;;;9.20;70.50;;;;;;5000447;28;20193;-76
2022/02/10 16:51:58;;;;;;;18.00;10.45;;;9.10;69.80;;;;;;5003339;28;20191;-75
2022/02/10 16:59:38;;;;;;;24.85;12.13;;;8.80;70.70;;;;;;5001552;28;20255;-77
2022/02/10 17:20:48;;;;;;;21.63;13.10;;;8.20;70.50;;;;;;4981124;28;20206;-73
2022/02/10 17:26:39;;;;;;;17.50;11.77;;;8.10;70.80;;;;;;4981233;28;20208;-72
2022/02/10 17:28:51;;;;;;;28.50;14.37;;;8.10;70.40;;;;;;4975394;28;20884;-73
2022/02/10 17:36:43;;;;;;;31.07;13.97;;;8.00;71.40;;;;;;4940219;29;20767;-76
2022/02/10 17:52:46;;;;;;;20.57;10.03;;;7.70;71.60;;;;;;4859984;29;20844;-73
2022/02/10 17:55:12;;;;;;;23.17;9.03;;;7.60;71.30;;;;;;4871251;29;20236;-72
2022/02/10 17:57:38;;;;;;;14.50;9.13;;;7.50;71.60;;;;;;4882414;29;20781;-73
2022/02/10 18:00:06;;;;;;;14.57;9.43;;;7.50;71.30;;;;;;4899236;29;20281;-73
2022/02/10 18:02:32;;;;;;;17.10;9.20;;;7.40;71.60;;;;;;4885949;29;20197;-74
2022/02/10 18:05:00;;;;;;;21.10;11.10;;;7.40;72.50;;;;;;4885153;29;20197;-74
2022/02/10 18:07:26;;;;;;;17.93;10.13;;;7.30;72.80;;;;;;4882610;29;20342;-74
2022/02/10 18:15:42;;;;;;;17.87;10.27;;;7.20;72.80;;;;;;4955879;28;20930;-73
2022/02/10 18:18:19;;;;;;;20.57;10.53;;;7.20;72.80;;;;;;4955428;28;20229;-73
2022/02/10 18:20:52;;;;;;;17.43;9.03;;;7.10;72.90;;;;;;4964941;28;20206;-74
2022/02/10 18:23:24;;;;;;;15.43;8.43;;;7.10;72.70;;;;;;5012871;28;20185;-73
2022/02/10 18:25:58;;;;;;;14.27;9.47;;;7.10;72.50;;;;;;5009257;28;20208;-74
2022/02/10 18:28:53;;;;;;;34.93;16.33;;;7.10;72.70;;;;;;5003341;28;20685;-74
2022/02/10 19:08:42;;;;;;;19.40;12.10;;;6.30;75.80;;;;;;5004752;28;20195;-74
2022/02/10 19:11:09;;;;;;;23.57;12.00;;;6.30;75.70;;;;;;5006056;28;20181;-75
2022/02/10 19:13:35;;;;;;;24.87;11.97;;;6.30;75.70;;;;;;5002195;28;20193;-75
2022/02/10 19:16:01;;;;;;;25.87;12.77;;;6.30;75.60;;;;;;5002679;28;20185;-77
2022/02/10 19:18:26;;;;;;;28.90;13.37;;;6.40;75.80;;;;;;5005208;28;20219;-75
2022/02/10 19:20:52;;;;;;;31.20;13.83;;;6.30;75.60;;;;;;5003600;28;20277;-75
2022/02/10 19:23:18;;;;;;;22.97;13.93;;;6.40;76.40;;;;;;5001078;28;20185;-76
2022/02/10 19:25:44;;;;;;;45.17;16.73;;;6.30;76.60;;;;;;5002181;28;20846;-76
2022/02/10 19:28:09;;;;;;;37.03;17.60;;;6.30;77.60;;;;;;4998019;28;20196;-76
2022/02/10 19:30:37;;;;;;;27.57;14.53;;;6.20;78.00;;;;;;4998787;28;20191;-76
2022/02/10 19:33:08;;;;;;;30.13;14.77;;;6.20;77.10;;;;;;5002809;28;20231;-76
2022/02/10 19:35:41;;;;;;;28.03;14.20;;;6.10;76.90;;;;;;5002613;28;20189;-76
2022/02/10 19:38:08;;;;;;;28.63;15.57;;;6.00;77.60;;;;;;5002735;28;20196;-76
2022/02/10 19:40:37;;;;;;;51.13;19.77;;;5.90;78.10;;;;;;5004577;28;20325;-76
2022/02/10 19:43:03;;;;;;;34.53;17.87;;;5.90;78.70;;;;;;5003815;28;20207;-76
2022/02/10 19:45:29;;;;;;;36.07;18.67;;;5.80;78.80;;;;;;5004540;28;20663;-76
2022/02/10 19:47:54;;;;;;;34.47;17.27;;;5.80;79.30;;;;;;5000905;28;20196;-76
2022/02/10 19:50:31;;;;;;;33.13;16.40;;;5.80;78.80;;;;;;5002998;28;20797;-76
2022/02/10 19:53:01;;;;;;;30.90;16.70;;;5.80;78.50;;;;;;5002835;28;20877;-76
2022/02/10 19:55:28;;;;;;;34.33;17.97;;;5.80;79.10;;;;;;5004828;28;20181;-76
2022/02/10 19:58:02;;;;;;;36.47;18.43;;;5.80;79.40;;;;;;5004533;28;20219;-75
2022/02/10 20:00:33;;;;;;;41.97;20.80;;;5.80;79.40;;;;;;5003672;28;20193;-76
2022/02/10 20:03:01;;;;;;;49.60;22.30;;;5.80;79.40;;;;;;5001692;28;20346;-76
2022/02/10 20:05:27;;;;;;;40.17;21.13;;;5.80;79.50;;;;;;4999304;28;20231;-76
2022/02/10 20:07:53;;;;;;;38.73;20.37;;;5.70;79.40;;;;;;5000435;28;20203;-76
2022/02/10 20:10:19;;;;;;;38.90;19.13;;;5.80;79.30;;;;;;5002968;28;20337;-76
2022/02/10 20:12:45;;;;;;;36.70;18.13;;;5.70;79.40;;;;;;5002167;28;20229;-75
2022/02/10 20:15:12;;;;;;;34.77;17.97;;;5.70;79.50;;;;;;5003544;28;20728;-76
2022/02/10 20:17:39;;;;;;;26.23;16.10;;;5.70;79.60;;;;;;5002995;28;20675;-76
2022/02/10 20:20:06;;;;;;;26.60;15.27;;;5.70;79.50;;;;;;5002378;28;20189;-77
2022/02/10 20:22:36;;;;;;;36.27;15.90;;;5.60;79.30;;;;;;5001500;28;20184;-76
2022/02/10 20:25:02;;;;;;;30.07;16.17;;;5.60;79.60;;;;;;5000035;28;21017;-76
2022/02/10 20:27:28;;;;;;;30.70;15.03;;;5.60;79.50;;;;;;5004598;28;20267;-76
2022/02/10 20:29:54;;;;;;;29.80;14.77;;;5.60;79.40;;;;;;5004451;28;20742;-76
2022/02/10 20:32:20;;;;;;;22.33;13.77;;;5.60;79.30;;;;;;5002865;28;20193;-76
2022/02/10 20:34:46;;;;;;;29.97;13.70;;;5.60;79.30;;;;;;5002538;28;20640;-77
2022/02/10 20:37:13;;;;;;;23.17;14.17;;;5.60;79.10;;;;;;5004462;28;20181;-76
2022/02/10 20:39:39;;;;;;;21.07;12.90;;;5.50;79.20;;;;;;5004503;28;20216;-76
2022/02/10 20:42:09;;;;;;;24.27;13.30;;;5.50;79.40;;;;;;5004466;28;20227;-76
2022/02/10 20:44:36;;;;;;;25.07;14.17;;;5.40;79.30;;;;;;5000958;28;20173;-76
2022/02/10 20:47:03;;;;;;;24.13;13.40;;;5.40;79.50;;;;;;5001010;28;20440;-75
2022/02/10 20:49:29;;;;;;;27.73;12.57;;;5.30;80.00;;;;;;5002169;28;20247;-76
2022/02/10 20:51:56;;;;;;;30.20;12.73;;;5.30;80.30;;;;;;5002749;28;20185;-76
2022/02/10 20:54:23;;;;;;;21.47;12.50;;;5.20;79.90;;;;;;4999853;28;20267;-76
2022/02/10 20:56:49;;;;;;;25.27;13.63;;;5.20;80.00;;;;;;5002222;28;20241;-74
2022/02/10 20:59:26;;;;;;;22.77;12.80;;;5.20;80.10;;;;;;5002077;28;21167;-75
2022/02/10 21:01:59;;;;;;;26.53;13.07;;;5.20;80.40;;;;;;4998378;28;20583;-76
2022/02/10 21:04:32;;;;;;;23.60;12.27;;;5.10;80.60;;;;;;4998190;28;20209;-77
2022/02/10 21:09:45;;;;;;;20.23;10.90;;;5.20;80.30;;;;;;4999821;28;20189;-77
2022/02/10 21:12:12;;;;;;;21.17;11.90;;;5.10;80.20;;;;;;4999556;28;20200;-73
2022/02/10 21:14:40;;;;;;;29.73;14.03;;;5.20;79.80;;;;;;5001335;28;20185;-74
2022/02/10 21:17:09;;;;;;;23.87;13.17;;;5.10;79.80;;;;;;4999127;28;20189;-73
2022/02/10 21:19:36;;;;;;;21.07;13.13;;;5.10;79.50;;;;;;4997881;28;20303;-73
2022/02/10 21:22:07;;;;;;;22.97;13.23;;;5.10;79.50;;;;;;5000343;28;20184;-73
2022/02/10 21:24:35;;;;;;;25.13;12.43;;;5.00;79.40;;;;;;4999440;28;20181;-73
2022/02/10 21:29:28;;;;;;;29.57;13.70;;;4.90;79.80;;;;;;5002850;28;20189;-74
2022/02/10 21:31:54;;;;;;;34.80;17.60;;;4.80;80.00;;;;;;5001475;28;20185;-73
2022/02/10 21:34:25;;;;;;;42.93;18.50;;;4.70;80.80;;;;;;5001009;28;20239;-74
2022/02/10 21:39:34;;;;;;;43.43;22.73;;;4.70;82.00;;;;;;5005001;28;20236;-75
2022/02/10 21:47:43;;;;;;;44.57;23.17;;;4.60;83.30;;;;;;4996987;28;20196;-74
2022/02/10 21:56:08;;;;;;;39.37;20.07;;;4.50;83.60;;;;;;4997236;28;20181;-74
2022/02/10 22:21:36;;;;;;;30.40;16.70;;;4.40;83.30;;;;;;4992304;28;20307;-74
2022/02/10 22:24:08;;;;;;;33.57;17.03;;;4.30;83.40;;;;;;5017675;28;20207;-74
2022/02/10 22:26:36;;;;;;;30.17;16.37;;;4.20;84.00;;;;;;5006443;28;20327;-74
2022/02/10 22:34:24;;;;;;;36.93;18.23;;;4.10;84.70;;;;;;5005722;28;20192;-75
2022/02/10 22:36:56;;;;;;;39.20;17.13;;;4.10;84.40;;;;;;4990595;28;20192;-74
2022/02/10 22:39:21;;;;;;;28.93;16.23;;;4.10;84.00;;;;;;5003793;28;20213;-74
2022/02/10 22:41:47;;;;;;;34.47;17.07;;;4.00;83.90;;;;;;5009921;28;20200;-74
2022/02/10 22:44:13;;;;;;;37.60;18.57;;;4.00;83.90;;;;;;5005867;28;20177;-74
2022/02/10 22:46:39;;;;;;;38.87;18.47;;;4.00;84.00;;;;;;5006915;28;20183;-74
2022/02/10 22:49:05;;;;;;;36.77;18.70;;;4.00;83.90;;;;;;5001760;28;20185;-74
2022/02/10 22:51:33;;;;;;;40.60;19.37;;;4.00;84.20;;;;;;5005044;28;20546;-75
2022/02/10 22:54:01;;;;;;;39.87;18.40;;;4.00;84.50;;;;;;5006990;28;20255;-75
2022/02/10 22:56:29;;;;;;;38.80;18.73;;;4.00;84.70;;;;;;5013145;28;20600;-74
2022/02/10 22:59:00;;;;;;;47.57;21.57;;;3.90;84.90;;;;;;5005188;28;20289;-77
2022/02/10 23:01:27;;;;;;;42.93;21.37;;;3.90;85.50;;;;;;5005741;28;20192;-75
2022/02/10 23:03:53;;;;;;;55.33;22.70;;;3.90;85.60;;;;;;5006425;28;20263;-74
2022/02/10 23:06:19;;;;;;;48.03;22.73;;;3.90;85.40;;;;;;4999238;28;20235;-74
2022/02/10 23:08:45;;;;;;;42.33;20.90;;;3.90;85.00;;;;;;5016212;28;20419;-74
2022/02/10 23:11:14;;;;;;;45.77;23.60;;;3.80;84.90;;;;;;5005548;28;20188;-74
2022/02/10 23:13:46;;;;;;;42.67;20.97;;;3.80;85.10;;;;;;5002073;28;20195;-72
2022/02/10 23:16:13;;;;;;;47.67;22.30;;;3.80;85.30;;;;;;5002595;28;20189;-73
2022/02/10 23:18:40;;;;;;;40.23;19.93;;;3.70;85.20;;;;;;5003277;28;20209;-72
2022/02/10 23:21:10;;;;;;;33.10;17.37;;;3.70;85.30;;;;;;5006023;28;20184;-73
2022/02/10 23:23:38;;;;;;;39.13;17.77;;;3.70;85.10;;;;;;5003384;28;20219;-73
2022/02/10 23:26:06;;;;;;;43.63;18.33;;;3.70;85.30;;;;;;5006846;28;20268;-73
2022/02/10 23:28:38;;;;;;;31.40;16.37;;;3.60;85.50;;;;;;5001827;28;20254;-72
2022/02/10 23:31:06;;;;;;;34.03;16.13;;;3.60;85.50;;;;;;5005881;28;20177;-73
2022/02/10 23:33:38;;;;;;;32.97;15.93;;;3.60;86.00;;;;;;5006114;28;20184;-73
2022/02/10 23:38:43;;;;;;;30.47;14.33;;;3.50;86.00;;;;;;5005485;28;20217;-73
2022/02/10 23:43:54;;;;;;;22.33;13.87;;;3.50;85.80;;;;;;5006110;28;20192;-74
2022/02/10 23:46:20;;;;;;;22.20;11.97;;;3.40;86.10;;;;;;5002015;28;20588;-73
2022/02/10 23:48:47;;;;;;;19.83;11.87;;;3.40;85.70;;;;;;5007146;28;20727;-74
2022/02/10 23:51:13;;;;;;;23.53;11.23;;;3.40;85.90;;;;;;5004945;28;20216;-74
2022/02/10 23:53:39;;;;;;;24.37;12.23;;;3.40;85.80;;;;;;5000998;28;20177;-74
2022/02/10 23:56:09;;;;;;;24.57;12.50;;;3.30;85.70;;;;;;5003647;28;20191;-72
